Tobin, Indiana
Current Conditions -  °F | °C
As of 12:15 PM on Tuesday 21 Oct 2014 (Local Time) from KHNB Reporting Station
Broken Clouds Broken Clouds  
Wind Chill: 61°   Ceiling: 5000
Heat Index: 61°   Visibility: 10mi
Dew Point: 45°   Wind: 13mph
Humidity: 55%   Direction: 20°NNE
Pressure: 30.11"   Gusts: 18mph
Location:  37.9466°N, 86.5893°W
Report Text: KHNB 211715Z AUTO 02011G16KT 10SM SCT038 BKN050 16/07 A3011 RMK AO1
Loading
Personal Weather Stations






























Interactive Weather Map
Tropical Storm Tracking
New forecast layout! Learn more

10-Day Weather Forecast

Advertisements
Track Severe Weather on mobile